createdAt,value
2022-11-12T00:02:39.131Z,12.03
2022-11-12T00:05:26.419Z,10.45
2022-11-12T00:08:12.242Z,7.17
2022-11-12T00:10:58.331Z,8.80
2022-11-12T00:13:45.277Z,6.72
2022-11-12T00:16:31.469Z,5.65
2022-11-12T00:19:17.785Z,7.62
2022-11-12T00:22:16.917Z,14.73
2022-11-12T00:25:04.320Z,7.70
2022-11-12T00:27:51.753Z,8.80
2022-11-12T00:30:41.676Z,10.78
2022-11-12T00:33:28.399Z,8.08
2022-11-12T00:36:14.121Z,12.23
2022-11-12T00:39:00.737Z,9.60
2022-11-12T00:41:46.577Z,8.03
2022-11-12T00:44:33.300Z,8.38
2022-11-12T00:47:20.394Z,7.70
2022-11-12T00:50:08.409Z,7.12
2022-11-12T00:52:54.140Z,7.83
2022-11-12T00:55:40.070Z,7.15
2022-11-12T00:58:26.017Z,8.50
2022-11-12T01:01:14.542Z,8.43
2022-11-12T01:04:00.909Z,7.97
2022-11-12T01:06:47.060Z,8.73
2022-11-12T01:09:33.169Z,8.75
2022-11-12T01:12:54.999Z,9.48
2022-11-12T01:15:42.663Z,7.40
2022-11-12T01:18:29.382Z,8.28
2022-11-12T01:21:15.635Z,6.87
2022-11-12T01:24:02.123Z,7.50
2022-11-12T01:27:08.300Z,8.38
2022-11-12T01:29:54.478Z,5.75
2022-11-12T01:32:41.448Z,14.07
2022-11-12T01:35:27.214Z,8.10
2022-11-12T01:38:13.401Z,7.95
2022-11-12T01:40:59.816Z,12.13
2022-11-12T01:43:45.947Z,12.55
2022-11-12T01:46:32.654Z,9.90
2022-11-12T01:49:28.783Z,11.15
2022-11-12T01:52:21.666Z,9.10
2022-11-12T01:55:14.663Z,10.18
2022-11-12T01:58:13.893Z,8.53
2022-11-12T02:01:02.366Z,9.75
2022-11-12T02:03:51.247Z,10.75
2022-11-12T02:06:37.968Z,8.93
2022-11-12T02:09:25.560Z,10.13
2022-11-12T02:12:13.318Z,9.53
2022-11-12T02:15:00.008Z,6.95
2022-11-12T02:17:46.550Z,9.65
2022-11-12T02:20:37.435Z,6.33
2022-11-12T02:23:23.780Z,7.95
2022-11-12T02:26:09.641Z,11.45
2022-11-12T02:28:56.344Z,7.42
2022-11-12T02:31:42.385Z,9.28
2022-11-12T02:34:28.786Z,8.48
2022-11-12T02:37:15.242Z,6.45
2022-11-12T02:40:01.480Z,7.80
2022-11-12T02:42:47.377Z,8.13
2022-11-12T02:45:33.760Z,8.15
2022-11-12T02:48:19.895Z,9.80
2022-11-12T02:51:06.634Z,7.85
2022-11-12T02:53:52.617Z,8.33
2022-11-12T02:56:39.020Z,7.50
2022-11-12T02:59:25.372Z,9.33
2022-11-12T03:02:11.264Z,9.53
2022-11-12T03:04:58.019Z,8.80
2022-11-12T03:07:44.315Z,8.40
2022-11-12T03:10:31.798Z,6.55
2022-11-12T03:13:17.841Z,7.47
2022-11-12T03:16:04.761Z,8.05
2022-11-12T03:18:51.456Z,6.60
2022-11-12T03:21:37.242Z,6.60
2022-11-12T03:24:24.392Z,9.05
2022-11-12T03:27:10.711Z,7.95
2022-11-12T03:29:56.956Z,7.78
2022-11-12T03:32:43.713Z,7.33
2022-11-12T03:35:30.198Z,7.58
2022-11-12T03:38:16.367Z,6.00
2022-11-12T03:41:02.876Z,6.17
2022-11-12T03:43:50.202Z,7.90
2022-11-12T03:46:40.129Z,7.95
2022-11-12T03:49:24.326Z,6.40
2022-11-12T03:52:11.180Z,4.47
2022-11-12T03:54:57.947Z,8.03
2022-11-12T03:57:45.732Z,5.50
2022-11-12T04:00:32.104Z,7.30
2022-11-12T04:03:18.198Z,5.95
2022-11-12T04:06:23.110Z,6.20
2022-11-12T04:09:09.318Z,7.47
2022-11-12T04:11:55.360Z,8.00
2022-11-12T04:14:41.676Z,9.55
2022-11-12T04:17:45.721Z,7.05
2022-11-12T04:20:48.208Z,8.35
2022-11-12T04:23:34.407Z,6.72
2022-11-12T04:26:23.733Z,6.42
2022-11-12T04:29:27.893Z,7.72
2022-11-12T04:32:14.955Z,6.95
2022-11-12T04:35:02.669Z,6.87
2022-11-12T04:37:49.032Z,7.17
2022-11-12T04:40:53.880Z,14.98
2022-11-12T04:43:58.743Z,6.37
2022-11-12T04:46:45.394Z,4.40
2022-11-12T04:49:31.451Z,12.25
2022-11-12T04:52:17.744Z,6.03
2022-11-12T04:55:05.121Z,8.40
2022-11-12T04:57:53.672Z,5.15
2022-11-12T05:00:39.356Z,11.95
2022-11-12T05:03:26.102Z,9.15
2022-11-12T05:06:31.906Z,6.90
2022-11-12T05:09:18.572Z,8.35
2022-11-12T05:12:05.016Z,9.18
2022-11-12T05:14:51.493Z,8.63
2022-11-12T05:17:43.999Z,7.20
2022-11-12T05:20:30.073Z,4.72
2022-11-12T05:23:16.685Z,10.30
2022-11-12T05:26:02.834Z,6.47
2022-11-12T05:28:49.186Z,10.48
2022-11-12T05:31:35.663Z,6.30
2022-11-12T05:34:23.190Z,5.90
2022-11-12T05:37:10.689Z,8.23
2022-11-12T05:39:57.194Z,6.05
2022-11-12T05:42:43.421Z,4.42
2022-11-12T05:45:29.744Z,5.35
2022-11-12T05:48:20.163Z,4.12
2022-11-12T05:51:13.075Z,4.58
2022-11-12T05:53:52.419Z,5.03
2022-11-12T05:56:38.994Z,3.95
2022-11-12T05:59:25.059Z,6.35
2022-11-12T06:02:13.139Z,9.53
2022-11-12T06:04:59.855Z,4.90
2022-11-12T06:07:45.860Z,4.65
2022-11-12T06:10:33.807Z,4.37
2022-11-12T06:13:20.913Z,6.25
2022-11-12T06:16:08.823Z,5.35
2022-11-12T06:18:55.050Z,4.10
2022-11-12T06:21:41.708Z,6.20
2022-11-12T06:24:34.723Z,5.12
2022-11-12T06:27:17.041Z,7.00
2022-11-12T06:30:05.427Z,7.45
2022-11-12T06:32:52.642Z,6.25
2022-11-12T06:35:42.735Z,8.33
2022-11-12T06:38:27.728Z,5.15
2022-11-12T06:41:15.268Z,8.95
2022-11-12T06:44:01.425Z,9.10
2022-11-12T06:46:47.969Z,10.32
2022-11-12T06:49:34.248Z,11.30
2022-11-12T06:52:20.312Z,13.30
2022-11-12T06:55:08.403Z,11.90
2022-11-12T06:57:55.186Z,10.20
2022-11-12T07:00:42.547Z,7.50
2022-11-12T07:03:29.557Z,7.10
2022-11-12T07:06:29.692Z,6.47
2022-11-12T07:09:07.656Z,8.85
2022-11-12T07:11:53.588Z,14.47
2022-11-12T07:14:39.662Z,6.30
2022-11-12T07:17:25.960Z,8.10
2022-11-12T07:20:12.587Z,9.33
2022-11-12T07:23:01.712Z,12.78
2022-11-12T07:25:47.694Z,8.53
2022-11-12T07:28:36.445Z,8.18
2022-11-12T07:31:23.508Z,9.68
2022-11-12T07:37:15.885Z,8.15
2022-11-12T07:40:01.704Z,8.15
2022-11-12T07:42:51.238Z,9.85
2022-11-12T07:45:38.915Z,9.03
2022-11-12T07:48:25.561Z,10.05
2022-11-12T07:51:20.641Z,10.35
2022-11-12T07:54:08.035Z,18.00
2022-11-12T07:56:53.812Z,11.20
2022-11-12T07:59:45.716Z,14.78
2022-11-12T08:02:28.365Z,11.10
2022-11-12T08:05:20.164Z,12.33
2022-11-12T08:08:02.710Z,17.73
2022-11-12T08:10:50.087Z,11.08
2022-11-12T08:13:36.892Z,12.20
2022-11-12T08:16:23.963Z,14.33
2022-11-12T08:19:12.163Z,13.18
2022-11-12T08:22:07.471Z,14.95
2022-11-12T08:24:53.324Z,14.58
2022-11-12T08:27:39.274Z,13.45
2022-11-12T08:30:28.078Z,15.10
2022-11-12T08:33:17.600Z,14.87
2022-11-12T08:36:12.601Z,15.72
2022-11-12T08:38:58.933Z,16.00
2022-11-12T08:41:45.710Z,20.68
2022-11-12T08:44:31.751Z,22.42
2022-11-12T08:47:19.312Z,14.63
2022-11-12T08:50:06.647Z,16.90
2022-11-12T08:52:53.187Z,19.73
2022-11-12T08:55:39.366Z,18.62
2022-11-12T08:58:26.865Z,20.60
2022-11-12T09:01:13.663Z,21.68
2022-11-12T09:04:00.082Z,20.08
2022-11-12T09:06:51.146Z,15.25
2022-11-12T09:09:35.426Z,14.73
2022-11-12T09:12:21.894Z,15.23
2022-11-12T09:18:01.932Z,15.18
2022-11-12T09:20:48.098Z,16.65
2022-11-12T09:23:35.640Z,16.40
2022-11-12T09:26:21.656Z,18.67
2022-11-12T09:29:07.364Z,19.30
2022-11-12T09:31:53.813Z,23.45
2022-11-12T09:34:40.115Z,21.85
2022-11-12T09:37:26.102Z,21.62
2022-11-12T09:40:18.397Z,26.45
2022-11-12T09:43:15.608Z,20.50
2022-11-12T09:46:26.534Z,25.43
2022-11-12T09:49:08.077Z,22.50
2022-11-12T09:52:04.035Z,22.15
2022-11-12T09:55:09.238Z,23.40
2022-11-12T09:57:55.587Z,21.40
2022-11-12T10:00:45.673Z,22.25
2022-11-12T10:03:59.056Z,26.25
2022-11-12T10:06:52.204Z,19.80
2022-11-12T10:09:42.282Z,20.75
2022-11-12T10:12:46.629Z,20.60
2022-11-12T10:15:58.682Z,23.38
2022-11-12T10:18:58.463Z,25.97
2022-11-12T10:22:00.568Z,24.07
2022-11-12T10:24:48.958Z,24.63
2022-11-12T10:27:39.950Z,24.92
2022-11-12T10:30:26.499Z,21.12
2022-11-12T10:33:15.172Z,21.15
2022-11-12T10:36:26.626Z,25.30
2022-11-12T10:39:33.556Z,22.80
2022-11-12T10:42:35.419Z,20.88
2022-11-12T10:45:23.945Z,22.05
2022-11-12T10:48:27.435Z,22.52
2022-11-12T10:51:27.363Z,25.32
2022-11-12T10:54:31.276Z,23.32
2022-11-12T10:57:23.892Z,21.70
2022-11-12T11:00:18.485Z,21.97
2022-11-12T11:03:25.032Z,24.18
2022-11-12T11:06:24.642Z,20.68
2022-11-12T11:09:17.013Z,20.72
2022-11-12T11:12:04.879Z,20.17
2022-11-12T11:15:11.276Z,27.60
2022-11-12T11:18:04.480Z,23.83
2022-11-12T11:21:02.998Z,23.92
2022-11-12T11:24:09.716Z,24.40
2022-11-12T11:26:59.525Z,25.30
2022-11-12T11:30:13.138Z,21.42
2022-11-12T11:33:29.359Z,22.58
2022-11-12T11:39:33.088Z,20.92
2022-11-12T11:42:47.839Z,22.93
2022-11-12T11:45:52.367Z,21.95
2022-11-12T11:48:58.872Z,23.30
2022-11-12T11:52:03.561Z,21.93
2022-11-12T11:55:09.346Z,22.37
2022-11-12T11:58:24.969Z,19.55
2022-11-12T12:01:31.440Z,24.15
2022-11-12T12:04:36.801Z,18.85
2022-11-12T12:07:44.414Z,17.92
2022-11-12T12:13:49.946Z,23.20
2022-11-12T12:16:48.510Z,17.80
2022-11-12T12:19:38.475Z,22.45
2022-11-12T12:22:40.854Z,18.87
2022-11-12T12:25:31.767Z,18.87
2022-11-12T12:28:28.164Z,17.95
2022-11-12T12:31:18.088Z,24.20
2022-11-12T12:34:07.689Z,26.65
2022-11-12T12:36:57.801Z,26.62
2022-11-12T12:39:59.878Z,29.18
2022-11-12T12:42:53.202Z,30.57
2022-11-12T12:45:45.584Z,27.20
2022-11-12T12:48:35.768Z,25.80
2022-11-12T12:51:41.788Z,54.05
2022-11-12T12:54:41.509Z,36.50
2022-11-12T12:57:37.291Z,38.15
2022-11-12T13:00:41.709Z,30.43
2022-11-12T13:03:47.645Z,32.15
2022-11-12T13:06:36.241Z,31.55
2022-11-12T13:09:25.971Z,27.45
2022-11-12T13:12:13.945Z,30.40
2022-11-12T13:15:15.825Z,26.15
2022-11-12T13:18:02.160Z,32.58
2022-11-12T13:21:10.914Z,31.50
2022-11-12T13:24:09.439Z,26.10
2022-11-12T13:26:58.306Z,31.30
2022-11-12T13:29:46.185Z,27.77
2022-11-12T13:32:35.526Z,36.70
2022-11-12T13:35:38.883Z,32.25
2022-11-12T13:38:25.246Z,29.42
2022-11-12T13:41:15.393Z,29.10
2022-11-12T13:44:05.199Z,31.55
2022-11-12T13:46:52.785Z,26.85
2022-11-12T13:49:39.317Z,31.37
2022-11-12T13:52:25.500Z,31.55
2022-11-12T13:55:18.299Z,30.30
2022-11-12T13:58:04.292Z,35.45
2022-11-12T14:01:00.376Z,32.67
2022-11-12T14:03:53.465Z,32.75
2022-11-12T14:07:05.697Z,37.80
2022-11-12T14:10:07.804Z,31.05
2022-11-12T14:13:13.207Z,41.45
2022-11-12T14:16:20.444Z,38.53
2022-11-12T14:19:10.190Z,32.50
2022-11-12T14:22:12.527Z,34.53
2022-11-12T14:25:01.207Z,35.08
2022-11-12T14:27:55.560Z,36.75
2022-11-12T14:30:44.502Z,34.53
2022-11-12T14:33:33.129Z,35.98
2022-11-12T14:36:26.541Z,34.20
2022-11-12T14:39:13.246Z,33.78
2022-11-12T14:42:01.094Z,33.40
2022-11-12T14:44:47.373Z,32.98
2022-11-12T14:47:33.915Z,32.03
2022-11-12T14:50:31.109Z,34.18
2022-11-12T14:53:40.459Z,34.65
2022-11-12T14:56:42.404Z,36.25
2022-11-12T14:59:28.629Z,35.78
2022-11-12T15:02:33.495Z,33.08
2022-11-12T15:05:19.786Z,38.98
2022-11-12T15:08:09.002Z,35.30
2022-11-12T15:10:56.121Z,35.15
2022-11-12T15:13:44.556Z,37.63
2022-11-12T15:16:35.583Z,37.85
2022-11-12T15:19:27.413Z,41.55
2022-11-12T15:22:22.403Z,37.98
2022-11-12T15:25:31.347Z,41.42
2022-11-12T15:28:25.351Z,35.38
2022-11-12T15:31:31.783Z,39.78
2022-11-12T15:34:34.650Z,36.65
2022-11-12T15:37:24.633Z,40.70
2022-11-12T15:40:17.127Z,40.58
2022-11-12T15:43:04.041Z,45.58
2022-11-12T15:45:51.693Z,36.98
2022-11-12T15:48:38.496Z,38.02
2022-11-12T15:51:24.702Z,41.40
2022-11-12T15:54:11.201Z,39.83
2022-11-12T15:56:57.794Z,45.63
2022-11-12T15:59:45.942Z,37.30
2022-11-12T16:02:32.393Z,40.00
2022-11-12T16:05:19.769Z,36.93
2022-11-12T16:08:06.955Z,37.80
2022-11-12T16:10:53.291Z,35.50
2022-11-12T16:13:40.347Z,37.75
2022-11-12T16:16:26.518Z,40.55
2022-11-12T16:19:17.294Z,46.75
2022-11-12T16:22:04.213Z,41.53
2022-11-12T16:24:50.891Z,40.30
2022-11-12T16:27:39.639Z,33.40
2022-11-12T16:30:28.958Z,37.93
2022-11-12T16:33:16.555Z,40.35
2022-11-12T16:36:03.127Z,39.15
2022-11-12T16:38:49.352Z,34.60
2022-11-12T16:41:36.419Z,38.17
2022-11-12T16:44:26.195Z,36.42
2022-11-12T16:47:12.373Z,32.60
2022-11-12T16:49:58.506Z,35.55
2022-11-12T16:52:44.835Z,36.83
2022-11-12T16:55:30.956Z,36.38
2022-11-12T16:58:17.169Z,38.38
2022-11-12T17:01:03.880Z,33.98
2022-11-12T17:03:54.459Z,45.83
2022-11-12T17:06:41.681Z,40.80
2022-11-12T17:09:28.045Z,40.33
2022-11-12T17:12:14.152Z,36.63
2022-11-12T17:15:20.286Z,43.80
2022-11-12T17:18:07.992Z,49.15
2022-11-12T17:21:15.380Z,47.85
2022-11-12T17:24:01.709Z,45.17
2022-11-12T17:26:47.967Z,44.05
2022-11-12T17:29:34.115Z,40.45
2022-11-12T17:32:20.594Z,34.27
2022-11-12T17:35:08.030Z,35.08
2022-11-12T17:37:56.589Z,38.15
2022-11-12T17:40:42.881Z,35.75
2022-11-12T17:43:29.821Z,37.98
2022-11-12T17:46:16.692Z,33.50
2022-11-12T17:49:03.100Z,38.98
2022-11-12T17:51:49.388Z,37.28
2022-11-12T17:54:35.974Z,32.20
2022-11-12T17:57:22.343Z,32.85
2022-11-12T18:00:10.276Z,35.28
2022-11-12T18:02:57.127Z,36.00
2022-11-12T18:05:43.602Z,38.20
2022-11-12T18:08:30.028Z,32.55
2022-11-12T18:11:16.438Z,30.80
2022-11-12T18:14:08.850Z,29.67
2022-11-12T18:16:54.923Z,28.12
2022-11-12T18:19:41.385Z,27.42
2022-11-12T18:22:27.608Z,32.95
2022-11-12T18:25:14.204Z,29.82
2022-11-12T18:28:01.035Z,27.70
2022-11-12T18:30:47.070Z,34.67
2022-11-12T18:33:35.918Z,27.27
2022-11-12T18:36:27.081Z,30.97
2022-11-12T18:39:12.981Z,30.00
2022-11-12T18:41:59.431Z,35.20
2022-11-12T18:44:46.621Z,33.00
2022-11-12T18:47:32.889Z,29.90
2022-11-12T18:50:21.000Z,29.85
2022-11-12T18:53:11.006Z,26.95
2022-11-12T18:56:18.693Z,30.82
2022-11-12T18:59:05.711Z,28.52
2022-11-12T19:01:51.859Z,35.48
2022-11-12T19:04:45.326Z,37.55
2022-11-12T19:07:30.087Z,30.90
2022-11-12T19:10:16.836Z,31.93
2022-11-12T19:13:05.352Z,38.75
2022-11-12T19:15:51.590Z,27.82
2022-11-12T19:18:39.666Z,32.28
2022-11-12T19:21:27.006Z,37.95
2022-11-12T19:24:15.489Z,51.77
2022-11-12T19:27:01.608Z,64.67
2022-11-12T19:30:02.456Z,53.87
2022-11-12T19:32:45.328Z,46.18
2022-11-12T19:35:31.715Z,37.13
2022-11-12T19:38:18.167Z,40.50
2022-11-12T19:41:07.827Z,39.73
2022-11-12T19:43:54.390Z,43.00
2022-11-12T19:46:40.972Z,42.58
2022-11-12T19:49:27.350Z,50.43
2022-11-12T19:52:13.649Z,45.03
2022-11-12T19:55:01.164Z,47.70
2022-11-12T19:57:47.269Z,48.00
2022-11-12T20:00:33.555Z,48.68
2022-11-12T20:03:22.244Z,47.27
2022-11-12T20:06:10.721Z,48.05
2022-11-12T20:08:59.029Z,46.42
2022-11-12T20:11:45.388Z,46.42
2022-11-12T20:14:32.700Z,42.98
2022-11-12T20:17:18.729Z,46.50
2022-11-12T20:20:06.100Z,45.35
2022-11-12T20:22:52.386Z,41.60
2022-11-12T20:25:39.203Z,42.03
2022-11-12T20:28:27.000Z,40.55
2022-11-12T20:31:16.079Z,37.42
2022-11-12T20:34:02.256Z,30.08
2022-11-12T20:36:48.653Z,31.52
2022-11-12T20:39:34.745Z,32.75
2022-11-12T20:42:20.793Z,34.05
2022-11-12T20:45:08.180Z,35.30
2022-11-12T20:47:56.704Z,30.45
2022-11-12T20:51:02.415Z,25.32
2022-11-12T20:53:32.722Z,20.12
2022-11-12T20:56:23.785Z,21.45
2022-11-12T20:59:11.177Z,20.25
2022-11-12T21:01:58.043Z,16.75
2022-11-12T21:05:04.129Z,15.70
2022-11-12T21:07:50.573Z,18.32
2022-11-12T21:10:36.768Z,18.15
2022-11-12T21:13:24.027Z,37.15
2022-11-12T21:16:10.537Z,40.15
2022-11-12T21:19:02.125Z,43.13
2022-11-12T21:21:48.139Z,52.85
2022-11-12T21:24:34.596Z,31.52
2022-11-12T21:27:20.800Z,25.88
2022-11-12T21:30:08.304Z,31.65
2022-11-12T21:32:54.511Z,31.60
2022-11-12T21:35:41.889Z,34.95
2022-11-12T21:38:29.047Z,30.35
2022-11-12T21:41:23.840Z,28.95
2022-11-12T21:44:10.203Z,33.25
2022-11-12T21:46:56.659Z,31.75
2022-11-12T21:49:43.414Z,25.15
2022-11-12T21:52:32.580Z,28.92
2022-11-12T21:55:19.239Z,22.30
2022-11-12T21:58:05.247Z,22.58
2022-11-12T22:00:51.076Z,23.42
2022-11-12T22:03:38.199Z,31.20
2022-11-12T22:06:26.953Z,18.90
2022-11-12T22:09:13.688Z,19.48
2022-11-12T22:12:00.132Z,21.87
2022-11-12T22:14:46.989Z,16.57
2022-11-12T22:17:36.461Z,18.52
2022-11-12T22:20:23.838Z,17.48
2022-11-12T22:23:10.044Z,18.35
2022-11-12T22:26:00.332Z,18.27
2022-11-12T22:28:47.386Z,18.65
2022-11-12T22:31:33.893Z,30.00
2022-11-12T22:34:20.433Z,27.62
2022-11-12T22:37:07.040Z,18.87
2022-11-12T22:39:53.312Z,27.80
2022-11-12T22:42:40.998Z,19.60
2022-11-12T22:45:30.655Z,22.20
2022-11-12T22:48:17.198Z,14.87
2022-11-12T22:51:05.762Z,6.42
2022-11-12T22:53:57.214Z,5.85
2022-11-12T22:56:44.675Z,3.70
2022-11-12T22:59:31.116Z,5.47
2022-11-12T23:02:17.138Z,2.62
2022-11-12T23:05:03.589Z,5.70
2022-11-12T23:07:50.068Z,3.25
2022-11-12T23:10:40.393Z,4.67
2022-11-12T23:13:27.538Z,2.65
2022-11-12T23:16:17.091Z,2.55
2022-11-12T23:19:03.264Z,3.75
2022-11-12T23:21:49.374Z,4.75
2022-11-12T23:24:38.710Z,3.62
2022-11-12T23:27:25.024Z,3.62
2022-11-12T23:30:12.315Z,2.10
2022-11-12T23:32:58.766Z,1.85
2022-11-12T23:35:45.329Z,1.92
2022-11-12T23:38:32.406Z,2.40
2022-11-12T23:41:23.935Z,5.87
2022-11-12T23:44:10.544Z,2.77
2022-11-12T23:46:56.858Z,1.70
2022-11-12T23:49:43.170Z,2.47
2022-11-12T23:52:29.163Z,1.75
2022-11-12T23:55:16.197Z,1.55
2022-11-12T23:58:04.824Z,1.95
